sensor_id;sensor_type;location;lat;lon;timestamp;P1;durP1;ratioP1;P2;durP2;ratioP2
32637;SDS011;19045;52.268;10.506;2022-08-19T00:00:50;8.38;;;6.18;;
32637;SDS011;19045;52.268;10.506;2022-08-19T00:03:17;10.60;;;6.28;;
32637;SDS011;19045;52.268;10.506;2022-08-19T00:05:44;11.15;;;6.88;;
32637;SDS011;19045;52.268;10.506;2022-08-19T00:08:10;13.48;;;6.28;;
32637;SDS011;19045;52.268;10.506;2022-08-19T00:10:37;10.70;;;6.10;;
32637;SDS011;19045;52.268;10.506;2022-08-19T00:13:04;12.43;;;6.28;;
32637;SDS011;19045;52.268;10.506;2022-08-19T00:15:32;9.98;;;6.05;;
32637;SDS011;19045;52.268;10.506;2022-08-19T00:17:59;11.45;;;7.20;;
32637;SDS011;19045;52.268;10.506;2022-08-19T00:20:25;9.13;;;6.68;;
32637;SDS011;19045;52.268;10.506;2022-08-19T00:22:52;10.40;;;6.78;;
32637;SDS011;19045;52.268;10.506;2022-08-19T00:25:19;10.98;;;6.75;;
32637;SDS011;19045;52.268;10.506;2022-08-19T00:27:46;8.90;;;6.57;;
32637;SDS011;19045;52.268;10.506;2022-08-19T00:30:13;12.60;;;6.30;;
32637;SDS011;19045;52.268;10.506;2022-08-19T00:32:41;10.45;;;6.20;;
32637;SDS011;19045;52.268;10.506;2022-08-19T00:35:09;11.57;;;6.75;;
32637;SDS011;19045;52.268;10.506;2022-08-19T00:37:36;11.25;;;6.65;;
32637;SDS011;19045;52.268;10.506;2022-08-19T00:40:04;9.27;;;5.95;;
32637;SDS011;19045;52.268;10.506;2022-08-19T00:42:32;10.82;;;6.55;;
32637;SDS011;19045;52.268;10.506;2022-08-19T00:44:59;10.50;;;5.90;;
32637;SDS011;19045;52.268;10.506;2022-08-19T00:47:26;13.55;;;6.32;;
32637;SDS011;19045;52.268;10.506;2022-08-19T00:49:55;9.80;;;5.75;;
32637;SDS011;19045;52.268;10.506;2022-08-19T00:52:25;11.95;;;5.68;;
32637;SDS011;19045;52.268;10.506;2022-08-19T00:54:55;7.38;;;5.55;;
32637;SDS011;19045;52.268;10.506;2022-08-19T00:57:24;10.13;;;5.63;;
32637;SDS011;19045;52.268;10.506;2022-08-19T00:59:54;7.72;;;5.32;;
32637;SDS011;19045;52.268;10.506;2022-08-19T01:02:22;9.77;;;5.70;;
32637;SDS011;19045;52.268;10.506;2022-08-19T01:04:50;9.52;;;5.40;;
32637;SDS011;19045;52.268;10.506;2022-08-19T01:07:18;8.98;;;5.47;;
32637;SDS011;19045;52.268;10.506;2022-08-19T01:09:45;7.72;;;5.93;;
32637;SDS011;19045;52.268;10.506;2022-08-19T01:12:12;9.40;;;5.68;;
32637;SDS011;19045;52.268;10.506;2022-08-19T01:14:39;11.45;;;5.88;;
32637;SDS011;19045;52.268;10.506;2022-08-19T01:17:07;8.55;;;5.75;;
32637;SDS011;19045;52.268;10.506;2022-08-19T01:19:35;12.38;;;6.00;;
32637;SDS011;19045;52.268;10.506;2022-08-19T01:22:06;9.68;;;6.07;;
32637;SDS011;19045;52.268;10.506;2022-08-19T01:24:40;11.00;;;5.78;;
32637;SDS011;19045;52.268;10.506;2022-08-19T01:27:07;7.10;;;5.63;;
32637;SDS011;19045;52.268;10.506;2022-08-19T01:29:34;8.77;;;5.75;;
32637;SDS011;19045;52.268;10.506;2022-08-19T01:32:05;8.63;;;5.65;;
32637;SDS011;19045;52.268;10.506;2022-08-19T01:34:32;11.20;;;5.70;;
32637;SDS011;19045;52.268;10.506;2022-08-19T01:36:59;8.80;;;5.85;;
32637;SDS011;19045;52.268;10.506;2022-08-19T01:39:27;9.57;;;5.63;;
32637;SDS011;19045;52.268;10.506;2022-08-19T01:41:55;12.77;;;6.03;;
32637;SDS011;19045;52.268;10.506;2022-08-19T01:44:22;9.13;;;6.00;;
32637;SDS011;19045;52.268;10.506;2022-08-19T01:46:50;8.93;;;5.32;;
32637;SDS011;19045;52.268;10.506;2022-08-19T01:49:19;5.97;;;5.40;;
32637;SDS011;19045;52.268;10.506;2022-08-19T01:51:47;9.07;;;5.85;;
32637;SDS011;19045;52.268;10.506;2022-08-19T01:54:16;13.02;;;6.32;;
32637;SDS011;19045;52.268;10.506;2022-08-19T01:56:44;10.70;;;5.60;;
32637;SDS011;19045;52.268;10.506;2022-08-19T01:59:13;6.22;;;5.00;;
32637;SDS011;19045;52.268;10.506;2022-08-19T02:01:42;7.80;;;5.45;;
32637;SDS011;19045;52.268;10.506;2022-08-19T02:04:09;7.82;;;5.57;;
32637;SDS011;19045;52.268;10.506;2022-08-19T02:06:36;8.95;;;4.82;;
32637;SDS011;19045;52.268;10.506;2022-08-19T02:09:03;9.43;;;5.30;;
32637;SDS011;19045;52.268;10.506;2022-08-19T02:11:32;9.93;;;5.90;;
32637;SDS011;19045;52.268;10.506;2022-08-19T02:14:01;7.97;;;5.30;;
32637;SDS011;19045;52.268;10.506;2022-08-19T02:16:32;9.00;;;5.70;;
32637;SDS011;19045;52.268;10.506;2022-08-19T02:18:58;7.72;;;4.90;;
32637;SDS011;19045;52.268;10.506;2022-08-19T02:21:26;8.68;;;4.90;;
32637;SDS011;19045;52.268;10.506;2022-08-19T02:23:53;9.30;;;5.53;;
32637;SDS011;19045;52.268;10.506;2022-08-19T02:26:20;7.20;;;5.00;;
32637;SDS011;19045;52.268;10.506;2022-08-19T02:28:48;11.07;;;5.60;;
32637;SDS011;19045;52.268;10.506;2022-08-19T02:31:16;13.15;;;5.78;;
32637;SDS011;19045;52.268;10.506;2022-08-19T02:33:47;10.60;;;5.65;;
32637;SDS011;19045;52.268;10.506;2022-08-19T02:36:15;10.95;;;5.18;;
32637;SDS011;19045;52.268;10.506;2022-08-19T02:38:43;9.90;;;5.47;;
32637;SDS011;19045;52.268;10.506;2022-08-19T02:41:11;9.93;;;5.65;;
32637;SDS011;19045;52.268;10.506;2022-08-19T02:43:40;10.93;;;5.97;;
32637;SDS011;19045;52.268;10.506;2022-08-19T02:46:11;7.60;;;4.85;;
32637;SDS011;19045;52.268;10.506;2022-08-19T02:48:39;6.85;;;6.07;;
32637;SDS011;19045;52.268;10.506;2022-08-19T02:51:07;8.95;;;5.60;;
32637;SDS011;19045;52.268;10.506;2022-08-19T02:53:34;7.97;;;5.55;;
32637;SDS011;19045;52.268;10.506;2022-08-19T02:56:05;9.63;;;5.57;;
32637;SDS011;19045;52.268;10.506;2022-08-19T02:58:32;8.68;;;5.03;;
32637;SDS011;19045;52.268;10.506;2022-08-19T03:00:59;8.35;;;5.38;;
32637;SDS011;19045;52.268;10.506;2022-08-19T03:03:26;8.63;;;5.38;;
32637;SDS011;19045;52.268;10.506;2022-08-19T03:06:05;13.32;;;6.65;;
32637;SDS011;19045;52.268;10.506;2022-08-19T03:08:35;13.55;;;5.03;;
32637;SDS011;19045;52.268;10.506;2022-08-19T03:11:03;11.57;;;5.88;;
32637;SDS011;19045;52.268;10.506;2022-08-19T03:13:30;10.77;;;5.40;;
32637;SDS011;19045;52.268;10.506;2022-08-19T03:15:59;8.73;;;5.63;;
32637;SDS011;19045;52.268;10.506;2022-08-19T03:18:26;11.10;;;6.55;;
32637;SDS011;19045;52.268;10.506;2022-08-19T03:20:52;9.98;;;6.03;;
32637;SDS011;19045;52.268;10.506;2022-08-19T03:23:21;8.65;;;5.38;;
32637;SDS011;19045;52.268;10.506;2022-08-19T03:25:49;10.27;;;6.10;;
32637;SDS011;19045;52.268;10.506;2022-08-19T03:28:18;12.05;;;6.43;;
32637;SDS011;19045;52.268;10.506;2022-08-19T03:30:54;10.43;;;6.68;;
32637;SDS011;19045;52.268;10.506;2022-08-19T03:33:22;11.95;;;5.70;;
32637;SDS011;19045;52.268;10.506;2022-08-19T03:35:59;9.07;;;5.88;;
32637;SDS011;19045;52.268;10.506;2022-08-19T03:38:28;9.07;;;6.10;;
32637;SDS011;19045;52.268;10.506;2022-08-19T03:40:54;12.98;;;6.55;;
32637;SDS011;19045;52.268;10.506;2022-08-19T03:43:21;9.73;;;5.72;;
32637;SDS011;19045;52.268;10.506;2022-08-19T03:45:48;9.32;;;5.60;;
32637;SDS011;19045;52.268;10.506;2022-08-19T03:48:16;8.50;;;5.50;;
32637;SDS011;19045;52.268;10.506;2022-08-19T03:50:42;9.13;;;6.00;;
32637;SDS011;19045;52.268;10.506;2022-08-19T03:53:09;10.45;;;6.18;;
32637;SDS011;19045;52.268;10.506;2022-08-19T03:55:40;9.20;;;6.35;;
32637;SDS011;19045;52.268;10.506;2022-08-19T03:58:07;13.23;;;6.72;;
32637;SDS011;19045;52.268;10.506;2022-08-19T04:00:36;10.63;;;6.50;;
32637;SDS011;19045;52.268;10.506;2022-08-19T04:03:02;7.60;;;6.03;;
32637;SDS011;19045;52.268;10.506;2022-08-19T04:05:29;8.88;;;5.57;;
32637;SDS011;19045;52.268;10.506;2022-08-19T04:07:56;7.10;;;5.82;;
32637;SDS011;19045;52.268;10.506;2022-08-19T04:10:24;11.18;;;5.95;;
32637;SDS011;19045;52.268;10.506;2022-08-19T04:12:52;12.15;;;7.10;;
32637;SDS011;19045;52.268;10.506;2022-08-19T04:15:18;10.48;;;6.35;;
32637;SDS011;19045;52.268;10.506;2022-08-19T04:17:45;9.07;;;5.93;;
32637;SDS011;19045;52.268;10.506;2022-08-19T04:20:12;8.50;;;5.97;;
32637;SDS011;19045;52.268;10.506;2022-08-19T04:22:39;12.10;;;7.90;;
32637;SDS011;19045;52.268;10.506;2022-08-19T04:25:06;9.40;;;6.20;;
32637;SDS011;19045;52.268;10.506;2022-08-19T04:27:33;9.55;;;6.13;;
32637;SDS011;19045;52.268;10.506;2022-08-19T04:30:01;12.00;;;6.60;;
32637;SDS011;19045;52.268;10.506;2022-08-19T04:32:29;10.75;;;6.72;;
32637;SDS011;19045;52.268;10.506;2022-08-19T04:34:56;10.70;;;5.97;;
32637;SDS011;19045;52.268;10.506;2022-08-19T04:37:23;10.85;;;6.57;;
32637;SDS011;19045;52.268;10.506;2022-08-19T04:39:51;10.48;;;6.30;;
32637;SDS011;19045;52.268;10.506;2022-08-19T04:42:35;9.88;;;6.75;;
32637;SDS011;19045;52.268;10.506;2022-08-19T04:45:07;8.32;;;6.78;;
32637;SDS011;19045;52.268;10.506;2022-08-19T04:47:36;10.82;;;6.00;;
32637;SDS011;19045;52.268;10.506;2022-08-19T04:50:03;11.43;;;5.80;;
32637;SDS011;19045;52.268;10.506;2022-08-19T04:52:30;9.27;;;5.97;;
32637;SDS011;19045;52.268;10.506;2022-08-19T04:54:57;9.18;;;5.22;;
32637;SDS011;19045;52.268;10.506;2022-08-19T04:57:24;11.15;;;5.68;;
32637;SDS011;19045;52.268;10.506;2022-08-19T04:59:53;10.98;;;5.32;;
32637;SDS011;19045;52.268;10.506;2022-08-19T05:02:22;8.32;;;5.38;;
32637;SDS011;19045;52.268;10.506;2022-08-19T05:04:50;11.55;;;6.03;;
32637;SDS011;19045;52.268;10.506;2022-08-19T05:07:17;11.93;;;5.05;;
32637;SDS011;19045;52.268;10.506;2022-08-19T05:09:44;9.05;;;5.38;;
32637;SDS011;19045;52.268;10.506;2022-08-19T05:12:10;10.20;;;5.05;;
32637;SDS011;19045;52.268;10.506;2022-08-19T05:14:37;7.72;;;5.78;;
32637;SDS011;19045;52.268;10.506;2022-08-19T05:17:04;9.68;;;5.43;;
32637;SDS011;19045;52.268;10.506;2022-08-19T05:19:32;9.82;;;4.65;;
32637;SDS011;19045;52.268;10.506;2022-08-19T05:22:16;11.25;;;5.50;;
32637;SDS011;19045;52.268;10.506;2022-08-19T05:25:05;10.48;;;5.15;;
32637;SDS011;19045;52.268;10.506;2022-08-19T05:27:33;9.75;;;5.40;;
32637;SDS011;19045;52.268;10.506;2022-08-19T05:30:00;9.57;;;5.47;;
32637;SDS011;19045;52.268;10.506;2022-08-19T05:32:27;8.93;;;5.80;;
32637;SDS011;19045;52.268;10.506;2022-08-19T05:34:56;14.02;;;5.43;;
32637;SDS011;19045;52.268;10.506;2022-08-19T05:37:23;12.20;;;5.82;;
32637;SDS011;19045;52.268;10.506;2022-08-19T05:39:52;11.43;;;5.00;;
32637;SDS011;19045;52.268;10.506;2022-08-19T05:42:19;8.48;;;5.22;;
32637;SDS011;19045;52.268;10.506;2022-08-19T05:44:47;12.68;;;5.45;;
32637;SDS011;19045;52.268;10.506;2022-08-19T05:47:14;11.77;;;6.18;;
32637;SDS011;19045;52.268;10.506;2022-08-19T05:49:43;7.32;;;5.95;;
32637;SDS011;19045;52.268;10.506;2022-08-19T05:52:12;8.75;;;5.93;;
32637;SDS011;19045;52.268;10.506;2022-08-19T05:54:41;9.18;;;6.30;;
32637;SDS011;19045;52.268;10.506;2022-08-19T05:57:10;11.63;;;5.80;;
32637;SDS011;19045;52.268;10.506;2022-08-19T05:59:36;7.28;;;5.18;;
32637;SDS011;19045;52.268;10.506;2022-08-19T06:02:03;9.63;;;6.13;;
32637;SDS011;19045;52.268;10.506;2022-08-19T06:04:32;8.13;;;5.60;;
32637;SDS011;19045;52.268;10.506;2022-08-19T06:06:59;7.60;;;4.72;;
32637;SDS011;19045;52.268;10.506;2022-08-19T06:09:28;8.30;;;5.35;;
32637;SDS011;19045;52.268;10.506;2022-08-19T06:11:55;9.45;;;5.68;;
32637;SDS011;19045;52.268;10.506;2022-08-19T06:14:29;9.10;;;5.40;;
32637;SDS011;19045;52.268;10.506;2022-08-19T06:16:57;11.20;;;5.20;;
32637;SDS011;19045;52.268;10.506;2022-08-19T06:19:27;11.00;;;5.90;;
32637;SDS011;19045;52.268;10.506;2022-08-19T06:21:56;9.50;;;5.45;;
32637;SDS011;19045;52.268;10.506;2022-08-19T06:24:24;10.80;;;5.18;;
32637;SDS011;19045;52.268;10.506;2022-08-19T06:26:54;11.98;;;5.50;;
32637;SDS011;19045;52.268;10.506;2022-08-19T06:29:23;7.75;;;5.57;;
32637;SDS011;19045;52.268;10.506;2022-08-19T06:31:52;12.23;;;5.43;;
32637;SDS011;19045;52.268;10.506;2022-08-19T06:34:21;7.78;;;4.57;;
32637;SDS011;19045;52.268;10.506;2022-08-19T06:36:49;7.95;;;4.80;;
32637;SDS011;19045;52.268;10.506;2022-08-19T06:39:18;8.32;;;5.43;;
32637;SDS011;19045;52.268;10.506;2022-08-19T06:41:48;9.88;;;4.80;;
32637;SDS011;19045;52.268;10.506;2022-08-19T06:44:17;9.50;;;4.70;;
32637;SDS011;19045;52.268;10.506;2022-08-19T06:46:45;10.07;;;4.75;;
32637;SDS011;19045;52.268;10.506;2022-08-19T06:49:13;10.18;;;4.38;;
32637;SDS011;19045;52.268;10.506;2022-08-19T06:51:41;9.50;;;4.55;;
32637;SDS011;19045;52.268;10.506;2022-08-19T06:54:08;7.80;;;4.65;;
32637;SDS011;19045;52.268;10.506;2022-08-19T06:56:36;6.63;;;3.55;;
32637;SDS011;19045;52.268;10.506;2022-08-19T06:59:04;8.27;;;4.28;;
32637;SDS011;19045;52.268;10.506;2022-08-19T07:01:35;6.32;;;3.42;;
32637;SDS011;19045;52.268;10.506;2022-08-19T07:04:03;5.93;;;3.67;;
32637;SDS011;19045;52.268;10.506;2022-08-19T07:06:31;7.80;;;3.90;;
32637;SDS011;19045;52.268;10.506;2022-08-19T07:08:58;5.63;;;3.25;;
32637;SDS011;19045;52.268;10.506;2022-08-19T07:11:25;6.95;;;3.47;;
32637;SDS011;19045;52.268;10.506;2022-08-19T07:13:52;6.32;;;4.18;;
32637;SDS011;19045;52.268;10.506;2022-08-19T07:16:20;6.30;;;3.45;;
32637;SDS011;19045;52.268;10.506;2022-08-19T07:18:48;7.38;;;4.03;;
32637;SDS011;19045;52.268;10.506;2022-08-19T07:21:16;4.68;;;3.67;;
32637;SDS011;19045;52.268;10.506;2022-08-19T07:23:46;6.75;;;4.10;;
32637;SDS011;19045;52.268;10.506;2022-08-19T07:26:14;5.05;;;3.63;;
32637;SDS011;19045;52.268;10.506;2022-08-19T07:28:44;7.15;;;3.40;;
32637;SDS011;19045;52.268;10.506;2022-08-19T07:31:12;5.68;;;3.78;;
32637;SDS011;19045;52.268;10.506;2022-08-19T07:33:40;8.30;;;4.00;;
32637;SDS011;19045;52.268;10.506;2022-08-19T07:36:10;11.07;;;3.78;;
32637;SDS011;19045;52.268;10.506;2022-08-19T07:38:38;7.80;;;3.70;;
32637;SDS011;19045;52.268;10.506;2022-08-19T07:41:07;6.28;;;3.95;;
32637;SDS011;19045;52.268;10.506;2022-08-19T07:43:35;8.63;;;3.28;;
32637;SDS011;19045;52.268;10.506;2022-08-19T07:46:02;6.47;;;3.67;;
32637;SDS011;19045;52.268;10.506;2022-08-19T07:48:29;4.65;;;3.00;;
32637;SDS011;19045;52.268;10.506;2022-08-19T07:50:57;4.88;;;3.13;;
32637;SDS011;19045;52.268;10.506;2022-08-19T07:53:28;5.50;;;3.10;;
32637;SDS011;19045;52.268;10.506;2022-08-19T07:55:56;8.98;;;3.78;;
32637;SDS011;19045;52.268;10.506;2022-08-19T07:58:24;5.85;;;3.50;;
32637;SDS011;19045;52.268;10.506;2022-08-19T08:00:52;9.55;;;3.45;;
32637;SDS011;19045;52.268;10.506;2022-08-19T08:03:19;3.67;;;3.05;;
32637;SDS011;19045;52.268;10.506;2022-08-19T08:06:08;6.03;;;3.45;;
32637;SDS011;19045;52.268;10.506;2022-08-19T08:08:54;5.20;;;3.33;;
32637;SDS011;19045;52.268;10.506;2022-08-19T08:11:50;5.15;;;3.08;;
32637;SDS011;19045;52.268;10.506;2022-08-19T08:14:23;6.97;;;2.88;;
32637;SDS011;19045;52.268;10.506;2022-08-19T08:16:55;5.63;;;3.10;;
32637;SDS011;19045;52.268;10.506;2022-08-19T08:19:26;4.55;;;3.15;;
32637;SDS011;19045;52.268;10.506;2022-08-19T08:21:54;5.68;;;3.20;;
32637;SDS011;19045;52.268;10.506;2022-08-19T08:24:24;5.70;;;3.70;;
32637;SDS011;19045;52.268;10.506;2022-08-19T08:26:51;7.30;;;3.38;;
32637;SDS011;19045;52.268;10.506;2022-08-19T08:29:17;5.15;;;3.15;;
32637;SDS011;19045;52.268;10.506;2022-08-19T08:31:45;7.13;;;3.25;;
32637;SDS011;19045;52.268;10.506;2022-08-19T08:34:12;6.15;;;2.85;;
32637;SDS011;19045;52.268;10.506;2022-08-19T08:36:41;6.18;;;3.28;;
32637;SDS011;19045;52.268;10.506;2022-08-19T08:39:10;8.13;;;3.20;;
32637;SDS011;19045;52.268;10.506;2022-08-19T08:41:43;4.68;;;2.65;;
32637;SDS011;19045;52.268;10.506;2022-08-19T08:44:13;8.05;;;3.75;;
32637;SDS011;19045;52.268;10.506;2022-08-19T08:46:44;4.45;;;2.38;;
32637;SDS011;19045;52.268;10.506;2022-08-19T08:49:17;5.53;;;3.25;;
32637;SDS011;19045;52.268;10.506;2022-08-19T08:51:54;5.40;;;2.83;;
32637;SDS011;19045;52.268;10.506;2022-08-19T08:54:28;6.47;;;3.50;;
32637;SDS011;19045;52.268;10.506;2022-08-19T08:57:00;5.32;;;3.05;;
32637;SDS011;19045;52.268;10.506;2022-08-19T08:59:31;3.17;;;2.60;;
32637;SDS011;19045;52.268;10.506;2022-08-19T09:02:01;4.90;;;3.35;;
32637;SDS011;19045;52.268;10.506;2022-08-19T09:04:28;4.32;;;2.92;;
32637;SDS011;19045;52.268;10.506;2022-08-19T09:06:57;6.10;;;3.28;;
32637;SDS011;19045;52.268;10.506;2022-08-19T09:09:35;4.75;;;2.72;;
32637;SDS011;19045;52.268;10.506;2022-08-19T09:12:08;3.60;;;3.22;;
32637;SDS011;19045;52.268;10.506;2022-08-19T09:14:48;5.32;;;3.03;;
32637;SDS011;19045;52.268;10.506;2022-08-19T09:17:20;7.93;;;2.97;;
32637;SDS011;19045;52.268;10.506;2022-08-19T09:19:56;7.90;;;4.05;;
32637;SDS011;19045;52.268;10.506;2022-08-19T09:22:27;6.13;;;2.78;;
32637;SDS011;19045;52.268;10.506;2022-08-19T09:24:54;5.53;;;2.60;;
32637;SDS011;19045;52.268;10.506;2022-08-19T09:27:23;7.10;;;4.60;;
32637;SDS011;19045;52.268;10.506;2022-08-19T09:29:51;4.55;;;3.47;;
32637;SDS011;19045;52.268;10.506;2022-08-19T09:32:19;7.20;;;4.03;;
32637;SDS011;19045;52.268;10.506;2022-08-19T09:34:46;6.22;;;4.05;;
32637;SDS011;19045;52.268;10.506;2022-08-19T09:37:13;11.27;;;4.15;;
32637;SDS011;19045;52.268;10.506;2022-08-19T09:39:40;5.90;;;4.20;;
32637;SDS011;19045;52.268;10.506;2022-08-19T09:42:07;6.07;;;3.47;;
32637;SDS011;19045;52.268;10.506;2022-08-19T09:44:40;7.15;;;4.80;;
32637;SDS011;19045;52.268;10.506;2022-08-19T09:47:08;5.78;;;4.00;;
32637;SDS011;19045;52.268;10.506;2022-08-19T09:49:36;6.47;;;4.03;;
32637;SDS011;19045;52.268;10.506;2022-08-19T09:52:04;6.05;;;3.92;;
32637;SDS011;19045;52.268;10.506;2022-08-19T09:54:32;6.57;;;3.25;;
32637;SDS011;19045;52.268;10.506;2022-08-19T09:57:00;6.97;;;4.10;;
32637;SDS011;19045;52.268;10.506;2022-08-19T09:59:27;6.47;;;3.67;;
32637;SDS011;19045;52.268;10.506;2022-08-19T10:01:56;8.02;;;4.28;;
32637;SDS011;19045;52.268;10.506;2022-08-19T10:04:23;9.65;;;4.47;;
32637;SDS011;19045;52.268;10.506;2022-08-19T10:07:10;5.85;;;4.20;;
32637;SDS011;19045;52.268;10.506;2022-08-19T10:09:37;6.18;;;4.03;;
32637;SDS011;19045;52.268;10.506;2022-08-19T10:12:06;6.10;;;4.15;;
32637;SDS011;19045;52.268;10.506;2022-08-19T10:14:33;7.38;;;4.00;;
32637;SDS011;19045;52.268;10.506;2022-08-19T10:17:02;7.13;;;4.93;;
32637;SDS011;19045;52.268;10.506;2022-08-19T10:19:29;6.40;;;4.55;;
32637;SDS011;19045;52.268;10.506;2022-08-19T10:22:02;7.10;;;5.15;;
32637;SDS011;19045;52.268;10.506;2022-08-19T10:24:29;11.57;;;5.30;;
32637;SDS011;19045;52.268;10.506;2022-08-19T10:26:56;5.95;;;4.95;;
32637;SDS011;19045;52.268;10.506;2022-08-19T10:29:23;7.97;;;4.35;;
32637;SDS011;19045;52.268;10.506;2022-08-19T10:31:50;6.13;;;4.63;;
32637;SDS011;19045;52.268;10.506;2022-08-19T10:34:19;5.28;;;4.35;;
32637;SDS011;19045;52.268;10.506;2022-08-19T10:36:46;6.70;;;4.13;;
32637;SDS011;19045;52.268;10.506;2022-08-19T10:39:13;5.13;;;3.65;;
32637;SDS011;19045;52.268;10.506;2022-08-19T10:41:39;7.88;;;4.15;;
32637;SDS011;19045;52.268;10.506;2022-08-19T10:44:09;6.45;;;3.83;;
32637;SDS011;19045;52.268;10.506;2022-08-19T10:46:38;4.88;;;3.67;;
32637;SDS011;19045;52.268;10.506;2022-08-19T10:49:08;4.38;;;3.50;;
32637;SDS011;19045;52.268;10.506;2022-08-19T10:51:37;5.30;;;3.97;;
32637;SDS011;19045;52.268;10.506;2022-08-19T10:54:22;3.85;;;3.35;;
32637;SDS011;19045;52.268;10.506;2022-08-19T10:57:09;5.45;;;4.28;;
32637;SDS011;19045;52.268;10.506;2022-08-19T10:59:34;4.28;;;3.30;;
32637;SDS011;19045;52.268;10.506;2022-08-19T11:02:02;4.65;;;3.22;;
32637;SDS011;19045;52.268;10.506;2022-08-19T11:04:31;6.53;;;3.42;;
32637;SDS011;19045;52.268;10.506;2022-08-19T11:07:00;10.65;;;3.55;;
32637;SDS011;19045;52.268;10.506;2022-08-19T11:09:27;8.07;;;2.97;;
32637;SDS011;19045;52.268;10.506;2022-08-19T11:11:53;5.85;;;3.05;;
32637;SDS011;19045;52.268;10.506;2022-08-19T11:14:22;4.18;;;2.78;;
32637;SDS011;19045;52.268;10.506;2022-08-19T11:16:50;5.10;;;2.83;;
32637;SDS011;19045;52.268;10.506;2022-08-19T11:19:20;4.10;;;3.17;;
32637;SDS011;19045;52.268;10.506;2022-08-19T11:21:49;4.38;;;2.97;;
32637;SDS011;19045;52.268;10.506;2022-08-19T11:24:19;4.18;;;3.38;;
32637;SDS011;19045;52.268;10.506;2022-08-19T11:26:47;3.28;;;2.22;;
32637;SDS011;19045;52.268;10.506;2022-08-19T11:29:15;9.40;;;3.08;;
32637;SDS011;19045;52.268;10.506;2022-08-19T11:31:45;5.25;;;3.25;;
32637;SDS011;19045;52.268;10.506;2022-08-19T11:34:16;4.57;;;2.60;;
32637;SDS011;19045;52.268;10.506;2022-08-19T11:36:45;3.03;;;2.72;;
32637;SDS011;19045;52.268;10.506;2022-08-19T11:39:14;5.05;;;2.70;;
32637;SDS011;19045;52.268;10.506;2022-08-19T11:41:44;5.55;;;3.22;;
32637;SDS011;19045;52.268;10.506;2022-08-19T11:44:10;2.75;;;2.28;;
32637;SDS011;19045;52.268;10.506;2022-08-19T11:46:39;2.97;;;2.58;;
32637;SDS011;19045;52.268;10.506;2022-08-19T11:49:06;7.07;;;2.75;;
32637;SDS011;19045;52.268;10.506;2022-08-19T11:51:34;4.38;;;3.08;;
32637;SDS011;19045;52.268;10.506;2022-08-19T11:54:01;5.57;;;2.60;;
32637;SDS011;19045;52.268;10.506;2022-08-19T11:56:30;5.90;;;3.78;;
32637;SDS011;19045;52.268;10.506;2022-08-19T11:59:00;3.50;;;2.47;;
32637;SDS011;19045;52.268;10.506;2022-08-19T12:01:27;3.97;;;3.22;;
32637;SDS011;19045;52.268;10.506;2022-08-19T12:03:54;7.78;;;3.67;;
32637;SDS011;19045;52.268;10.506;2022-08-19T12:06:22;5.35;;;4.10;;
32637;SDS011;19045;52.268;10.506;2022-08-19T12:08:53;3.80;;;3.28;;
32637;SDS011;19045;52.268;10.506;2022-08-19T12:11:21;7.68;;;2.65;;
32637;SDS011;19045;52.268;10.506;2022-08-19T12:13:48;3.00;;;2.75;;
32637;SDS011;19045;52.268;10.506;2022-08-19T12:16:17;5.50;;;3.15;;
32637;SDS011;19045;52.268;10.506;2022-08-19T12:18:46;4.20;;;2.53;;
32637;SDS011;19045;52.268;10.506;2022-08-19T12:21:13;3.85;;;3.47;;
32637;SDS011;19045;52.268;10.506;2022-08-19T12:23:41;3.13;;;2.75;;
32637;SDS011;19045;52.268;10.506;2022-08-19T12:26:09;3.92;;;2.45;;
32637;SDS011;19045;52.268;10.506;2022-08-19T12:28:36;3.22;;;2.60;;
32637;SDS011;19045;52.268;10.506;2022-08-19T12:31:04;2.95;;;2.30;;
32637;SDS011;19045;52.268;10.506;2022-08-19T12:33:32;4.88;;;2.55;;
32637;SDS011;19045;52.268;10.506;2022-08-19T12:36:00;6.28;;;2.15;;
32637;SDS011;19045;52.268;10.506;2022-08-19T12:38:28;3.97;;;2.65;;
32637;SDS011;19045;52.268;10.506;2022-08-19T12:40:57;3.35;;;2.72;;
32637;SDS011;19045;52.268;10.506;2022-08-19T12:43:24;6.35;;;2.38;;
32637;SDS011;19045;52.268;10.506;2022-08-19T12:45:51;3.42;;;2.08;;
32637;SDS011;19045;52.268;10.506;2022-08-19T12:48:18;3.30;;;1.92;;
32637;SDS011;19045;52.268;10.506;2022-08-19T12:50:46;3.30;;;2.70;;
32637;SDS011;19045;52.268;10.506;2022-08-19T12:53:13;2.60;;;2.40;;
32637;SDS011;19045;52.268;10.506;2022-08-19T12:55:41;3.10;;;2.38;;
32637;SDS011;19045;52.268;10.506;2022-08-19T12:58:08;5.25;;;2.30;;
32637;SDS011;19045;52.268;10.506;2022-08-19T13:00:37;3.45;;;2.58;;
32637;SDS011;19045;52.268;10.506;2022-08-19T13:03:04;4.13;;;2.03;;
32637;SDS011;19045;52.268;10.506;2022-08-19T13:05:31;2.40;;;2.20;;
32637;SDS011;19045;52.268;10.506;2022-08-19T13:08:00;5.72;;;2.47;;
32637;SDS011;19045;52.268;10.506;2022-08-19T13:10:28;5.72;;;2.35;;
32637;SDS011;19045;52.268;10.506;2022-08-19T13:13:00;4.65;;;2.50;;
32637;SDS011;19045;52.268;10.506;2022-08-19T13:15:28;2.65;;;2.40;;
32637;SDS011;19045;52.268;10.506;2022-08-19T13:17:57;4.00;;;2.38;;
32637;SDS011;19045;52.268;10.506;2022-08-19T13:20:24;2.83;;;2.13;;
32637;SDS011;19045;52.268;10.506;2022-08-19T13:22:51;2.53;;;1.98;;
32637;SDS011;19045;52.268;10.506;2022-08-19T13:25:20;3.67;;;2.42;;
32637;SDS011;19045;52.268;10.506;2022-08-19T13:27:47;2.60;;;2.00;;
32637;SDS011;19045;52.268;10.506;2022-08-19T13:30:16;3.15;;;2.20;;
32637;SDS011;19045;52.268;10.506;2022-08-19T13:33:01;3.33;;;2.35;;
32637;SDS011;19045;52.268;10.506;2022-08-19T13:35:37;3.33;;;2.55;;
32637;SDS011;19045;52.268;10.506;2022-08-19T13:38:05;2.38;;;1.98;;
32637;SDS011;19045;52.268;10.506;2022-08-19T13:40:34;3.15;;;2.10;;
32637;SDS011;19045;52.268;10.506;2022-08-19T13:43:02;3.20;;;2.63;;
32637;SDS011;19045;52.268;10.506;2022-08-19T13:45:30;5.88;;;2.60;;
32637;SDS011;19045;52.268;10.506;2022-08-19T13:47:59;3.47;;;2.88;;
32637;SDS011;19045;52.268;10.506;2022-08-19T13:50:29;3.15;;;2.47;;
32637;SDS011;19045;52.268;10.506;2022-08-19T13:52:57;3.28;;;2.55;;
32637;SDS011;19045;52.268;10.506;2022-08-19T13:55:24;3.55;;;2.40;;
32637;SDS011;19045;52.268;10.506;2022-08-19T13:57:53;3.50;;;2.70;;
32637;SDS011;19045;52.268;10.506;2022-08-19T14:00:22;3.42;;;2.47;;
32637;SDS011;19045;52.268;10.506;2022-08-19T14:02:51;2.88;;;2.55;;
32637;SDS011;19045;52.268;10.506;2022-08-19T14:05:20;3.78;;;3.00;;
32637;SDS011;19045;52.268;10.506;2022-08-19T14:07:47;3.08;;;2.40;;
32637;SDS011;19045;52.268;10.506;2022-08-19T14:10:15;3.55;;;2.58;;
32637;SDS011;19045;52.268;10.506;2022-08-19T14:12:42;3.33;;;2.80;;
32637;SDS011;19045;52.268;10.506;2022-08-19T14:15:11;3.58;;;3.00;;
32637;SDS011;19045;52.268;10.506;2022-08-19T14:17:38;4.90;;;3.10;;
32637;SDS011;19045;52.268;10.506;2022-08-19T14:20:07;3.53;;;2.72;;
32637;SDS011;19045;52.268;10.506;2022-08-19T14:22:35;3.92;;;3.03;;
32637;SDS011;19045;52.268;10.506;2022-08-19T14:25:03;3.60;;;2.42;;
32637;SDS011;19045;52.268;10.506;2022-08-19T14:27:32;3.42;;;2.60;;
32637;SDS011;19045;52.268;10.506;2022-08-19T14:29:59;4.90;;;3.25;;
32637;SDS011;19045;52.268;10.506;2022-08-19T14:32:27;3.92;;;2.97;;
32637;SDS011;19045;52.268;10.506;2022-08-19T14:34:54;2.60;;;2.40;;
32637;SDS011;19045;52.268;10.506;2022-08-19T14:37:20;4.65;;;3.00;;
32637;SDS011;19045;52.268;10.506;2022-08-19T14:39:47;5.25;;;3.65;;